Arcata/Eureka (ACV/KACV)

Map

Destinations

Information

Location
Arcata/Eureka, CA
Local Time
15:29 / 3:29 pm
GMT Time
22:29 / 10:29 pm
Gates
6
No FAA reported delays
METAR KACV 242153Z AUTO 26006KT 8SM CLR 17/12 A2985 RMK AO2 SLP113 T01670122
TAF KACV 241916Z 2419/2518 30007KT 6SM HZ SCT007 BKN010 FM242000 31009KT 6SM HZ FEW007 SCT010 FM250400 24005KT P6SM OVC015 FM250900 18003KT 3SM BR OVC004